sensor_id;sensor_type;location;lat;lon;timestamp;P1;durP1;ratioP1;P2;durP2;ratioP2
13687;SDS011;6916;51.504;7.416;2024-02-23T00:05:34;53.58;;;37.40;;
13687;SDS011;6916;51.504;7.416;2024-02-23T00:20:37;49.90;;;35.22;;
13687;SDS011;6916;51.504;7.416;2024-02-23T00:35:40;45.85;;;31.65;;
13687;SDS011;6916;51.504;7.416;2024-02-23T00:50:44;40.92;;;29.73;;
13687;SDS011;6916;51.504;7.416;2024-02-23T01:05:47;35.97;;;26.40;;
13687;SDS011;6916;51.504;7.416;2024-02-23T01:20:50;33.25;;;24.08;;
13687;SDS011;6916;51.504;7.416;2024-02-23T01:35:53;30.73;;;21.98;;
13687;SDS011;6916;51.504;7.416;2024-02-23T01:50:57;29.38;;;20.00;;
13687;SDS011;6916;51.504;7.416;2024-02-23T02:06:01;27.58;;;18.92;;
13687;SDS011;6916;51.504;7.416;2024-02-23T02:21:04;24.27;;;17.98;;
13687;SDS011;6916;51.504;7.416;2024-02-23T02:36:07;21.60;;;16.08;;
13687;SDS011;6916;51.504;7.416;2024-02-23T02:51:11;23.27;;;15.75;;
13687;SDS011;6916;51.504;7.416;2024-02-23T03:06:14;19.50;;;14.77;;
13687;SDS011;6916;51.504;7.416;2024-02-23T03:21:17;19.85;;;14.13;;
13687;SDS011;6916;51.504;7.416;2024-02-23T03:36:20;17.45;;;12.25;;
13687;SDS011;6916;51.504;7.416;2024-02-23T03:51:24;16.45;;;11.45;;
13687;SDS011;6916;51.504;7.416;2024-02-23T04:06:27;16.20;;;11.25;;
13687;SDS011;6916;51.504;7.416;2024-02-23T04:21:30;13.75;;;10.15;;
13687;SDS011;6916;51.504;7.416;2024-02-23T04:36:33;12.18;;;9.38;;
13687;SDS011;6916;51.504;7.416;2024-02-23T04:51:36;59.67;;;39.05;;
13687;SDS011;6916;51.504;7.416;2024-02-23T05:06:39;200.00;;;135.25;;
13687;SDS011;6916;51.504;7.416;2024-02-23T05:21:44;216.88;;;143.65;;
13687;SDS011;6916;51.504;7.416;2024-02-23T05:36:48;258.08;;;173.90;;
13687;SDS011;6916;51.504;7.416;2024-02-23T05:51:53;204.65;;;134.15;;
13687;SDS011;6916;51.504;7.416;2024-02-23T06:06:56;283.65;;;197.60;;
13687;SDS011;6916;51.504;7.416;2024-02-23T06:21:59;359.98;;;254.48;;
13687;SDS011;6916;51.504;7.416;2024-02-23T06:37:03;261.50;;;174.98;;
13687;SDS011;6916;51.504;7.416;2024-02-23T06:52:07;191.77;;;127.00;;
13687;SDS011;6916;51.504;7.416;2024-02-23T07:07:10;141.18;;;94.95;;
13687;SDS011;6916;51.504;7.416;2024-02-23T07:22:13;116.63;;;74.55;;
13687;SDS011;6916;51.504;7.416;2024-02-23T07:37:18;90.93;;;60.60;;
13687;SDS011;6916;51.504;7.416;2024-02-23T07:52:21;69.57;;;47.13;;
13687;SDS011;6916;51.504;7.416;2024-02-23T08:07:25;233.18;;;148.38;;
13687;SDS011;6916;51.504;7.416;2024-02-23T08:22:29;169.48;;;109.65;;
13687;SDS011;6916;51.504;7.416;2024-02-23T08:37:32;121.05;;;81.38;;
13687;SDS011;6916;51.504;7.416;2024-02-23T08:52:36;202.27;;;136.07;;
13687;SDS011;6916;51.504;7.416;2024-02-23T09:07:39;153.18;;;101.65;;
13687;SDS011;6916;51.504;7.416;2024-02-23T09:22:42;338.30;;;227.60;;
13687;SDS011;6916;51.504;7.416;2024-02-23T09:37:45;241.23;;;149.48;;
13687;SDS011;6916;51.504;7.416;2024-02-23T09:52:48;120.47;;;77.20;;
13687;SDS011;6916;51.504;7.416;2024-02-23T10:07:52;77.75;;;51.55;;
13687;SDS011;6916;51.504;7.416;2024-02-23T10:22:55;59.58;;;38.55;;
13687;SDS011;6916;51.504;7.416;2024-02-23T10:37:59;44.15;;;29.70;;
13687;SDS011;6916;51.504;7.416;2024-02-23T10:53:02;32.58;;;21.35;;
13687;SDS011;6916;51.504;7.416;2024-02-23T11:08:07;25.35;;;16.58;;
13687;SDS011;6916;51.504;7.416;2024-02-23T11:23:14;17.05;;;11.90;;
13687;SDS011;6916;51.504;7.416;2024-02-23T11:38:18;14.15;;;9.20;;
13687;SDS011;6916;51.504;7.416;2024-02-23T11:53:22;11.15;;;7.50;;
13687;SDS011;6916;51.504;7.416;2024-02-23T12:08:27;8.35;;;5.35;;
13687;SDS011;6916;51.504;7.416;2024-02-23T12:23:38;5.90;;;3.95;;
13687;SDS011;6916;51.504;7.416;2024-02-23T12:38:42;5.15;;;3.20;;
13687;SDS011;6916;51.504;7.416;2024-02-23T12:53:45;3.03;;;2.13;;
13687;SDS011;6916;51.504;7.416;2024-02-23T13:08:49;3.17;;;2.13;;
13687;SDS011;6916;51.504;7.416;2024-02-23T13:23:52;63.55;;;41.05;;
13687;SDS011;6916;51.504;7.416;2024-02-23T13:38:55;61.80;;;39.22;;
13687;SDS011;6916;51.504;7.416;2024-02-23T13:53:59;172.65;;;99.13;;
13687;SDS011;6916;51.504;7.416;2024-02-23T14:09:02;283.48;;;164.68;;
13687;SDS011;6916;51.504;7.416;2024-02-23T14:24:06;257.67;;;153.27;;
13687;SDS011;6916;51.504;7.416;2024-02-23T14:39:09;303.70;;;193.73;;
13687;SDS011;6916;51.504;7.416;2024-02-23T14:54:14;226.98;;;136.85;;
13687;SDS011;6916;51.504;7.416;2024-02-23T15:09:18;284.42;;;189.07;;
13687;SDS011;6916;51.504;7.416;2024-02-23T15:24:21;227.00;;;148.18;;
13687;SDS011;6916;51.504;7.416;2024-02-23T15:39:25;180.95;;;118.28;;
13687;SDS011;6916;51.504;7.416;2024-02-23T15:54:28;141.25;;;92.28;;
13687;SDS011;6916;51.504;7.416;2024-02-23T16:09:33;318.73;;;229.98;;
13687;SDS011;6916;51.504;7.416;2024-02-23T16:24:36;246.18;;;165.10;;
13687;SDS011;6916;51.504;7.416;2024-02-23T16:39:39;190.65;;;128.43;;
13687;SDS011;6916;51.504;7.416;2024-02-23T16:54:43;379.52;;;246.90;;
13687;SDS011;6916;51.504;7.416;2024-02-23T17:09:47;300.90;;;196.02;;
13687;SDS011;6916;51.504;7.416;2024-02-23T17:24:50;220.57;;;139.52;;
13687;SDS011;6916;51.504;7.416;2024-02-23T17:54:58;150.10;;;96.57;;
13687;SDS011;6916;51.504;7.416;2024-02-23T18:10:01;122.90;;;80.07;;
13687;SDS011;6916;51.504;7.416;2024-02-23T18:25:05;104.82;;;66.80;;
13687;SDS011;6916;51.504;7.416;2024-02-23T18:40:10;86.80;;;56.88;;
13687;SDS011;6916;51.504;7.416;2024-02-23T18:55:14;77.13;;;49.78;;
13687;SDS011;6916;51.504;7.416;2024-02-23T19:10:17;61.50;;;41.95;;
13687;SDS011;6916;51.504;7.416;2024-02-23T19:25:20;58.67;;;39.20;;
13687;SDS011;6916;51.504;7.416;2024-02-23T19:40:23;49.42;;;33.42;;
13687;SDS011;6916;51.504;7.416;2024-02-23T19:55:27;46.13;;;30.58;;
13687;SDS011;6916;51.504;7.416;2024-02-23T20:10:30;38.53;;;26.63;;
13687;SDS011;6916;51.504;7.416;2024-02-23T20:25:33;36.08;;;23.65;;
13687;SDS011;6916;51.504;7.416;2024-02-23T20:40:37;29.25;;;20.58;;
13687;SDS011;6916;51.504;7.416;2024-02-23T20:55:40;29.00;;;19.90;;
13687;SDS011;6916;51.504;7.416;2024-02-23T21:10:43;24.77;;;16.67;;
13687;SDS011;6916;51.504;7.416;2024-02-23T21:25:46;96.68;;;63.55;;
13687;SDS011;6916;51.504;7.416;2024-02-23T21:40:49;172.60;;;112.47;;
13687;SDS011;6916;51.504;7.416;2024-02-23T21:55:53;186.68;;;121.47;;
13687;SDS011;6916;51.504;7.416;2024-02-23T22:10:56;241.30;;;149.23;;
13687;SDS011;6916;51.504;7.416;2024-02-23T22:26:00;263.92;;;167.48;;
13687;SDS011;6916;51.504;7.416;2024-02-23T22:41:03;175.15;;;114.18;;
13687;SDS011;6916;51.504;7.416;2024-02-23T22:56:06;268.48;;;184.02;;
13687;SDS011;6916;51.504;7.416;2024-02-23T23:11:10;203.93;;;136.52;;
13687;SDS011;6916;51.504;7.416;2024-02-23T23:26:13;104.93;;;70.18;;
13687;SDS011;6916;51.504;7.416;2024-02-23T23:41:17;88.75;;;61.05;;
13687;SDS011;6916;51.504;7.416;2024-02-23T23:56:20;69.32;;;48.75;;
